Fergus Falls, MN (56537)

3:38 PM CDT on July 29, 2016 (GMT -0500)
Northwest Fergus Falls | | Change Station
Active Advisory: Special Statement

Elev 1234 ft 46.29 °N, 96.09 °W | Updated 11 minutes ago

Overcast
Overcast
75.2 °F
Feels Like 77 °F
N
6.8
Wind Variable Wind from NE
Gusts 9.3 mph

Today
High -- | Low -- °F
--% Chance of Precip.
Yesterday
High -- | Low -- °F
Precip. -- in
Pressure 30.06 in
Visibility 5.0 miles
Clouds Scattered Clouds 3600 ft
Mostly Cloudy 4200 ft
Overcast 6000 ft
Heat Index 77 °F
Dew Point 62 °F
Humidity 62%
Rainfall 0.00 in
Snow Depth Not available.
6:02 AM 8:57 PM
Waning Crescent, 19% visible
METAR KFFM 292034Z AUTO 10009KT 5SM RA SCT036 BKN042 OVC060 23/18 A3006 RMK AO2 P0001
Pressure 30.06 in
Visibility 5.0 miles
Clouds Scattered Clouds 3600 ft
Mostly Cloudy 4200 ft
Overcast 6000 ft
Heat Index 77 °F
Dew Point 62 °F
Humidity 62%
Rainfall 0.00 in
Snow Depth Not available.
6:02 AM 8:57 PM
Waning Crescent, 19% visible
METAR KFFM 292034Z AUTO 10009KT 5SM RA SCT036 BKN042 OVC060 23/18 A3006 RMK AO2 P0001

10-Day Weather Forecast

Almanac

Astronomy

Jul. 29, 2016 Rise Set
Actual Time
Civil Twilight
Nautical Twilight
Astronomical Twilight
Moon
Length of Visible Light
Length of Day
Tomorrow will be .
, % of the Moon is Illuminated

Today's Extremes

State Highs State Lows

Community

WunderPhotos

Upload Photos

1,928,407 photos uploaded!

WunderBlog® & News

Nearby

Air Quality

  Air Quality AQ Index Pollutant
Not available.

Snow Depth

Station Depth Elevation

Earthquake Activity

City Distance Mag. Time & Date
Minimum magnitude displayed is 2.5.

Coastal Water Temperatures

Place Temperature

Stations

Nearby Weather Stations

Station Location Temp. Windchill Dew Point Humidity Wind Precip. Elev Updated Type
                   

Watches & Warnings

Special Statement
Issued: 2:45 PM CDT Jul. 29, 2016 – National Weather Service

... Funnel clouds possible across a portion of west central
Minnesota...

Environmental conditions are favorable for the formation of brief
and weak funnel clouds this afternoon within lakes country. These
types of funnel clouds are typically short lived... but if you see
one nearing the ground be prepared to seek shelter.

Fgf

245 PM CDT Fri Jul 29 2016

... Funnel clouds possible across a portion of west central
Minnesota...

Environmental conditions are favorable for the formation of brief
and weak funnel clouds this afternoon within lakes country. These
types of funnel clouds are typically short lived... but if you see
one nearing the ground be prepared to seek shelter.

Fgf